Time;durP1;ratioP1;P1;durP2;ratioP2;P2;SDS_P1;SDS_P2;PMS_P1;PMS_P2;Temp;Humidity;BMP_temperature;BMP_pressure;BME280_temperature;BME280_humidity;BME280_pressure;Samples;Min_cycle;Max_cycle;Signal;HPM_P1;HPM_P2
2022/06/18 00:00:48;;;;;;;6.28;3.67;;;17.10;72.80;;;;;;5074338;28;20695;-84
2022/06/18 00:03:14;;;;;;;6.10;3.60;;;17.10;73.00;;;;;;5075756;28;20629;-84
2022/06/18 00:05:41;;;;;;;10.73;3.70;;;17.00;73.40;;;;;;5075162;28;20258;-84
2022/06/18 00:08:13;;;;;;;8.65;3.75;;;17.00;73.60;;;;;;5073914;28;20539;-85
2022/06/18 00:10:39;;;;;;;6.22;3.78;;;17.00;73.70;;;;;;5074102;28;20195;-85
2022/06/18 00:13:42;;;;;;;8.18;3.30;;;16.90;73.90;;;;;;5075247;28;20178;-84
2022/06/18 00:16:18;;;;;;;4.43;3.80;;;16.90;73.90;;;;;;5075093;28;20171;-84
2022/06/18 00:18:43;;;;;;;5.68;3.35;;;16.80;74.10;;;;;;5073974;28;20554;-84
2022/06/18 00:21:15;;;;;;;7.18;3.67;;;16.90;74.20;;;;;;5073751;28;20191;-84
2022/06/18 00:23:41;;;;;;;4.15;3.40;;;16.80;74.30;;;;;;5075139;28;20254;-84
2022/06/18 00:26:09;;;;;;;7.43;3.60;;;16.70;74.60;;;;;;5073766;28;20255;-84
2022/06/18 00:28:34;;;;;;;6.45;3.58;;;16.70;74.80;;;;;;5075008;28;20179;-84
2022/06/18 00:31:00;;;;;;;8.15;3.67;;;16.70;75.00;;;;;;5075114;28;20191;-84
2022/06/18 00:33:27;;;;;;;8.23;3.80;;;16.60;75.30;;;;;;5075084;28;20168;-84
2022/06/18 00:35:56;;;;;;;7.00;3.85;;;16.60;75.40;;;;;;5074862;28;20164;-83
2022/06/18 00:38:31;;;;;;;5.57;4.10;;;16.60;75.50;;;;;;5074923;28;20298;-83
2022/06/18 00:40:58;;;;;;;4.30;3.88;;;16.50;75.60;;;;;;5076438;28;20191;-84
2022/06/18 00:43:30;;;;;;;6.82;5.20;;;16.60;75.80;;;;;;5076214;28;20258;-85
2022/06/18 00:46:10;;;;;;;5.93;4.05;;;16.60;75.70;;;;;;5076624;28;20164;-84
2022/06/18 00:48:49;;;;;;;5.70;3.70;;;16.50;75.80;;;;;;5077692;28;20205;-85
2022/06/18 00:51:24;;;;;;;5.70;3.78;;;16.50;76.00;;;;;;5077866;28;20223;-83
2022/06/18 00:54:04;;;;;;;3.90;3.50;;;16.50;76.10;;;;;;5077074;28;20530;-84
2022/06/18 00:56:54;;;;;;;3.97;3.20;;;16.40;76.30;;;;;;5077939;28;20199;-84
2022/06/18 00:59:50;;;;;;;8.73;3.45;;;16.40;76.50;;;;;;5077361;28;20206;-84
2022/06/18 01:02:24;;;;;;;5.68;3.60;;;16.40;76.60;;;;;;5074737;28;20190;-86
2022/06/18 01:04:49;;;;;;;7.50;4.00;;;16.40;76.60;;;;;;5075872;28;20213;-87
2022/06/18 01:07:36;;;;;;;3.85;3.55;;;16.40;76.60;;;;;;5076119;28;20167;-87
2022/06/18 01:10:12;;;;;;;6.82;3.70;;;16.30;76.80;;;;;;5077151;28;20198;-87
2022/06/18 01:12:38;;;;;;;4.63;3.60;;;16.30;77.00;;;;;;5075083;28;20270;-86
2022/06/18 01:15:07;;;;;;;6.80;3.80;;;16.30;77.00;;;;;;5075206;28;20203;-87
2022/06/18 01:17:35;;;;;;;6.40;4.10;;;16.30;77.00;;;;;;5075314;28;20194;-86
2022/06/18 01:20:04;;;;;;;4.72;3.80;;;16.30;77.00;;;;;;5075601;28;20188;-86
2022/06/18 01:23:03;;;;;;;4.32;3.42;;;16.30;77.00;;;;;;5075396;28;20587;-86
2022/06/18 01:25:31;;;;;;;7.07;3.72;;;16.30;77.00;;;;;;5070887;28;20190;-87
2022/06/18 01:27:57;;;;;;;3.80;3.50;;;16.20;77.20;;;;;;5074809;28;20336;-86
2022/06/18 01:30:29;;;;;;;6.38;3.80;;;16.30;77.30;;;;;;5074589;28;20202;-86
2022/06/18 01:32:56;;;;;;;4.95;3.95;;;16.30;77.30;;;;;;5074617;28;20167;-86
2022/06/18 01:35:22;;;;;;;3.97;3.55;;;16.30;77.20;;;;;;5076132;28;20171;-86
2022/06/18 01:37:48;;;;;;;6.72;3.78;;;16.30;76.90;;;;;;5074218;28;20226;-86
2022/06/18 01:40:20;;;;;;;4.57;3.28;;;16.20;77.00;;;;;;5074579;28;20566;-87
2022/06/18 01:42:48;;;;;;;5.75;3.42;;;16.30;76.90;;;;;;5074584;28;20191;-86
2022/06/18 01:45:24;;;;;;;7.53;3.17;;;16.20;76.90;;;;;;5074222;28;20262;-86
2022/06/18 01:48:04;;;;;;;4.90;3.72;;;16.20;76.90;;;;;;5074293;28;20171;-86
2022/06/18 01:50:47;;;;;;;4.78;3.35;;;16.20;77.00;;;;;;5074053;28;20285;-86
2022/06/18 01:53:30;;;;;;;4.30;3.70;;;16.10;76.90;;;;;;5074415;28;20159;-86
2022/06/18 01:56:06;;;;;;;3.85;3.30;;;16.00;77.00;;;;;;5075748;28;20163;-86
2022/06/18 01:59:00;;;;;;;8.07;3.53;;;16.00;77.10;;;;;;5075467;28;20645;-86
2022/06/18 02:01:29;;;;;;;4.63;3.47;;;16.00;77.20;;;;;;5074498;28;20241;-86
2022/06/18 02:03:57;;;;;;;10.27;3.28;;;15.90;77.60;;;;;;5073695;28;20177;-86
2022/06/18 02:06:24;;;;;;;8.68;4.03;;;15.80;77.80;;;;;;5073945;28;20178;-86
2022/06/18 02:08:50;;;;;;;7.03;3.67;;;15.80;78.00;;;;;;5074332;28;20178;-86
2022/06/18 02:11:18;;;;;;;6.10;3.50;;;15.80;78.40;;;;;;5074064;28;20202;-86
2022/06/18 02:13:51;;;;;;;3.75;3.42;;;15.80;78.40;;;;;;5073948;28;20193;-86
2022/06/18 02:16:25;;;;;;;13.18;3.28;;;15.80;78.30;;;;;;5074010;28;20248;-87
2022/06/18 02:18:51;;;;;;;7.65;3.47;;;15.70;78.30;;;;;;5075408;28;20162;-86
2022/06/18 02:21:21;;;;;;;5.57;3.58;;;15.80;78.20;;;;;;5075455;28;20206;-86
2022/06/18 02:23:49;;;;;;;5.57;3.53;;;15.70;78.60;;;;;;5074753;28;20235;-86
2022/06/18 02:26:15;;;;;;;4.20;3.45;;;15.70;78.70;;;;;;5075981;28;20184;-86
2022/06/18 02:28:43;;;;;;;7.38;3.78;;;15.70;79.30;;;;;;5074388;28;20183;-87
2022/06/18 02:31:16;;;;;;;5.60;4.05;;;15.70;79.60;;;;;;5073920;28;20199;-86
2022/06/18 02:34:08;;;;;;;7.72;4.25;;;15.70;79.90;;;;;;5075475;28;20164;-86
2022/06/18 02:36:39;;;;;;;5.20;4.10;;;15.70;80.30;;;;;;5075734;28;20197;-87
2022/06/18 02:39:08;;;;;;;8.57;4.25;;;15.70;80.20;;;;;;5075517;28;20234;-86
2022/06/18 02:41:35;;;;;;;6.65;4.30;;;15.70;80.50;;;;;;5075539;28;20168;-87
2022/06/18 02:44:01;;;;;;;7.10;4.50;;;15.60;81.30;;;;;;5074047;28;20402;-86
2022/06/18 02:46:27;;;;;;;8.52;4.35;;;15.60;81.60;;;;;;5075182;28;20221;-86
2022/06/18 02:48:53;;;;;;;6.93;4.68;;;15.50;81.80;;;;;;5074867;28;20238;-86
2022/06/18 02:51:18;;;;;;;9.32;4.00;;;15.50;81.60;;;;;;5075475;28;20194;-86
2022/06/18 02:53:44;;;;;;;5.38;3.80;;;15.60;80.90;;;;;;5073415;28;20171;-86
2022/06/18 02:56:13;;;;;;;9.82;4.30;;;15.60;80.40;;;;;;5074781;28;20202;-86
2022/06/18 02:58:45;;;;;;;6.80;3.97;;;15.70;80.30;;;;;;5074844;28;20289;-87
2022/06/18 03:01:24;;;;;;;9.60;4.00;;;15.80;80.20;;;;;;5073771;28;20273;-86
2022/06/18 03:03:52;;;;;;;6.30;3.70;;;16.00;79.60;;;;;;5073634;28;20176;-86
2022/06/18 03:06:19;;;;;;;7.70;3.60;;;16.20;78.70;;;;;;5077656;28;20174;-86
2022/06/18 03:08:46;;;;;;;4.23;3.57;;;16.20;78.40;;;;;;5078583;28;20217;-86
2022/06/18 03:13:57;;;;;;;4.28;3.17;;;16.30;78.00;;;;;;5079494;28;20158;-86
2022/06/18 03:16:22;;;;;;;7.65;3.45;;;16.60;77.00;;;;;;5077538;28;20610;-86
2022/06/18 03:18:50;;;;;;;5.60;3.73;;;16.70;76.50;;;;;;5078457;28;20175;-88
2022/06/18 03:21:20;;;;;;;8.48;3.10;;;16.80;75.90;;;;;;5077121;28;20274;-87
2022/06/18 03:23:46;;;;;;;8.77;4.13;;;16.80;76.00;;;;;;5078301;28;20167;-88
2022/06/18 03:26:13;;;;;;;7.15;3.70;;;17.00;75.40;;;;;;5077264;28;20175;-87
2022/06/18 03:28:40;;;;;;;9.00;3.80;;;17.00;75.40;;;;;;5077561;28;20178;-87
2022/06/18 03:31:06;;;;;;;3.78;3.38;;;17.20;75.00;;;;;;5078977;28;20192;-87
2022/06/18 03:33:32;;;;;;;3.75;3.45;;;17.20;75.10;;;;;;5076683;28;20633;-87
2022/06/18 03:35:58;;;;;;;5.00;4.05;;;17.00;75.80;;;;;;5078226;28;20178;-86
2022/06/18 03:38:23;;;;;;;4.28;3.88;;;16.90;76.70;;;;;;5077510;28;20288;-86
2022/06/18 03:40:51;;;;;;;4.50;3.72;;;16.70;77.50;;;;;;5077381;28;20270;-87
2022/06/18 03:43:19;;;;;;;9.35;3.90;;;16.80;77.40;;;;;;5077025;28;20199;-88
2022/06/18 03:45:47;;;;;;;6.53;3.67;;;16.80;77.70;;;;;;5077726;28;20281;-87
2022/06/18 03:48:36;;;;;;;4.25;3.70;;;16.70;78.20;;;;;;5078031;28;20179;-87
2022/06/18 03:51:02;;;;;;;5.40;3.70;;;16.70;78.30;;;;;;5077833;28;20676;-87
2022/06/18 03:53:28;;;;;;;4.50;3.47;;;16.70;78.20;;;;;;5077952;28;20707;-87
2022/06/18 03:55:53;;;;;;;4.65;3.85;;;16.80;78.30;;;;;;5077596;28;20176;-87
2022/06/18 03:58:19;;;;;;;4.18;3.78;;;16.70;78.90;;;;;;5076927;28;20563;-86
2022/06/18 04:00:45;;;;;;;7.22;5.05;;;16.70;79.30;;;;;;5076408;28;20195;-87
2022/06/18 04:03:10;;;;;;;7.32;3.97;;;16.80;78.90;;;;;;5076008;28;20537;-86
2022/06/18 04:05:39;;;;;;;8.75;4.10;;;16.90;78.40;;;;;;5076135;28;20305;-87
2022/06/18 04:08:05;;;;;;;9.60;4.53;;;17.00;78.10;;;;;;5075782;28;20187;-87
2022/06/18 04:10:31;;;;;;;5.03;3.85;;;17.10;77.90;;;;;;5075826;28;20195;-87
2022/06/18 04:12:56;;;;;;;5.22;3.90;;;17.20;77.70;;;;;;5076122;28;20295;-87
2022/06/18 04:15:22;;;;;;;3.97;3.63;;;17.30;77.70;;;;;;5076245;28;20213;-87
2022/06/18 04:17:48;;;;;;;3.88;3.40;;;17.40;77.10;;;;;;5075832;28;20203;-87
2022/06/18 04:20:19;;;;;;;4.70;3.85;;;17.40;77.00;;;;;;5077209;28;20241;-87
2022/06/18 04:22:44;;;;;;;8.75;4.55;;;17.50;76.80;;;;;;5077150;28;20156;-86
2022/06/18 04:25:10;;;;;;;4.10;3.70;;;17.60;76.40;;;;;;5076023;28;20593;-87
2022/06/18 04:27:36;;;;;;;7.13;3.58;;;17.70;76.30;;;;;;5075831;28;20182;-86
2022/06/18 04:30:01;;;;;;;6.65;3.50;;;17.70;76.20;;;;;;5075930;28;20206;-86
2022/06/18 04:32:27;;;;;;;8.02;3.97;;;17.80;76.20;;;;;;5075669;28;20224;-86
2022/06/18 04:34:52;;;;;;;5.50;3.88;;;17.80;76.60;;;;;;5075744;28;20547;-86
2022/06/18 04:37:18;;;;;;;4.50;3.80;;;17.80;77.10;;;;;;5075717;28;20192;-87
2022/06/18 04:39:43;;;;;;;6.25;4.28;;;17.80;77.30;;;;;;5075650;28;20191;-86
2022/06/18 04:42:09;;;;;;;4.93;3.90;;;17.80;77.80;;;;;;5075947;28;20180;-86
2022/06/18 04:44:34;;;;;;;6.40;4.00;;;17.90;77.00;;;;;;5075736;28;20171;-86
2022/06/18 04:47:00;;;;;;;5.43;4.18;;;18.00;77.20;;;;;;5075423;28;20179;-86
2022/06/18 04:49:25;;;;;;;7.40;4.65;;;18.20;76.00;;;;;;5076347;28;20187;-87
2022/06/18 04:51:51;;;;;;;12.60;4.55;;;18.30;76.50;;;;;;5076477;28;20206;-86
2022/06/18 04:54:16;;;;;;;13.40;4.80;;;18.30;75.90;;;;;;5075603;28;20671;-86
2022/06/18 04:56:42;;;;;;;10.45;5.05;;;18.30;75.80;;;;;;5075308;28;20211;-86
2022/06/18 04:59:07;;;;;;;7.00;4.57;;;18.30;75.70;;;;;;5075549;28;20203;-86
2022/06/18 05:01:33;;;;;;;5.97;4.43;;;18.50;75.60;;;;;;5075131;28;20206;-87
2022/06/18 05:03:58;;;;;;;7.38;4.80;;;18.50;76.50;;;;;;5074759;28;20179;-86
2022/06/18 05:06:24;;;;;;;9.38;5.47;;;18.60;75.90;;;;;;5075957;28;20186;-87
2022/06/18 05:08:49;;;;;;;12.63;5.60;;;18.70;76.20;;;;;;5077179;28;20168;-86
2022/06/18 05:11:15;;;;;;;7.43;5.28;;;18.70;75.90;;;;;;5076441;28;20195;-86
2022/06/18 05:13:41;;;;;;;7.80;4.97;;;18.70;75.10;;;;;;5075178;28;20246;-86
2022/06/18 05:16:07;;;;;;;14.35;4.80;;;18.80;74.50;;;;;;5075231;28;20183;-87
2022/06/18 05:18:35;;;;;;;9.55;4.78;;;19.00;73.30;;;;;;5076297;28;20278;-86
2022/06/18 05:21:01;;;;;;;6.55;4.20;;;19.10;73.00;;;;;;5074968;28;20246;-86
2022/06/18 05:23:28;;;;;;;7.82;4.25;;;19.10;73.00;;;;;;5075055;28;20175;-86
2022/06/18 05:25:57;;;;;;;9.60;4.32;;;19.20;73.20;;;;;;5075184;28;20172;-86
2022/06/18 05:28:22;;;;;;;8.60;4.72;;;19.20;73.30;;;;;;5074161;28;20171;-86
2022/06/18 05:30:48;;;;;;;6.30;4.30;;;19.30;73.10;;;;;;5074443;28;20196;-86
2022/06/18 05:33:13;;;;;;;7.07;4.63;;;19.40;73.60;;;;;;5075046;28;20589;-85
2022/06/18 05:35:41;;;;;;;9.18;4.82;;;19.50;73.70;;;;;;5075305;28;20182;-86
2022/06/18 05:38:07;;;;;;;8.32;4.35;;;19.50;73.60;;;;;;5074735;28;20195;-87
2022/06/18 05:40:33;;;;;;;6.90;5.07;;;19.60;73.40;;;;;;5076575;28;20613;-87
2022/06/18 05:42:58;;;;;;;6.00;4.60;;;19.70;72.70;;;;;;5074997;28;20179;-86
2022/06/18 05:45:24;;;;;;;9.27;5.10;;;19.80;72.60;;;;;;5074923;28;20254;-87
2022/06/18 05:47:49;;;;;;;9.15;5.15;;;19.90;72.20;;;;;;5075403;28;20248;-87
2022/06/18 05:50:19;;;;;;;5.55;5.03;;;19.90;72.20;;;;;;5075645;28;20213;-86
2022/06/18 05:52:45;;;;;;;12.15;5.15;;;20.00;71.80;;;;;;5074614;28;20200;-87
2022/06/18 05:55:11;;;;;;;6.43;5.07;;;20.20;72.30;;;;;;5074492;28;20645;-87
2022/06/18 05:57:48;;;;;;;5.53;5.03;;;20.20;71.30;;;;;;5074448;28;20207;-87
2022/06/18 06:00:16;;;;;;;5.85;5.25;;;20.30;71.50;;;;;;5075283;28;20241;-87
2022/06/18 06:02:41;;;;;;;7.82;5.22;;;20.20;70.20;;;;;;5076367;28;20172;-86
2022/06/18 06:05:07;;;;;;;7.72;5.13;;;20.30;69.70;;;;;;5075579;28;20221;-86
2022/06/18 06:07:33;;;;;;;8.77;5.18;;;20.30;70.00;;;;;;5075746;28;20180;-87
2022/06/18 06:12:42;;;;;;;7.07;5.72;;;20.50;71.10;;;;;;5076202;28;20171;-86
2022/06/18 06:15:09;;;;;;;8.43;6.07;;;20.40;70.10;;;;;;5075721;28;20172;-87
2022/06/18 06:17:35;;;;;;;9.98;5.43;;;20.50;70.60;;;;;;5074069;28;20293;-87
2022/06/18 06:20:07;;;;;;;7.28;6.05;;;20.50;70.60;;;;;;5075610;28;20226;-87
2022/06/18 06:22:34;;;;;;;7.07;5.55;;;20.60;70.80;;;;;;5074777;28;20191;-87
2022/06/18 06:24:59;;;;;;;7.03;5.82;;;20.60;71.20;;;;;;5074610;28;20555;-86
2022/06/18 06:27:25;;;;;;;11.50;7.20;;;20.70;71.40;;;;;;5074091;28;20696;-87
2022/06/18 06:29:51;;;;;;;11.00;6.43;;;20.70;70.70;;;;;;5075563;28;20210;-87
2022/06/18 06:32:16;;;;;;;10.13;6.70;;;20.70;71.40;;;;;;5074210;28;20229;-87
2022/06/18 06:34:42;;;;;;;10.60;6.55;;;20.80;72.00;;;;;;5073655;28;20171;-87
2022/06/18 06:37:07;;;;;;;8.65;6.70;;;20.80;71.60;;;;;;5073620;28;20191;-87
2022/06/18 06:39:33;;;;;;;11.95;7.38;;;20.80;72.20;;;;;;5074438;28;20237;-87
2022/06/18 06:41:58;;;;;;;10.70;6.97;;;21.00;70.50;;;;;;5075650;28;20178;-86
2022/06/18 06:44:24;;;;;;;9.32;6.95;;;21.00;71.20;;;;;;5075497;28;20264;-86
2022/06/18 06:46:52;;;;;;;11.00;6.85;;;20.90;70.70;;;;;;5076770;28;20254;-86
2022/06/18 06:49:17;;;;;;;13.27;7.10;;;20.90;70.60;;;;;;5076760;28;20260;-87
2022/06/18 06:51:43;;;;;;;8.63;6.90;;;21.00;71.60;;;;;;5076759;28;20213;-86
2022/06/18 06:54:09;;;;;;;9.65;7.10;;;21.00;71.40;;;;;;5075431;28;20186;-85
2022/06/18 06:59:19;;;;;;;13.82;7.30;;;21.10;72.20;;;;;;5077366;28;20629;-87
2022/06/18 07:01:45;;;;;;;9.05;7.80;;;21.20;72.30;;;;;;5076492;28;20199;-86
2022/06/18 07:04:12;;;;;;;10.07;7.28;;;21.20;70.60;;;;;;5075138;28;20217;-85
2022/06/18 07:06:38;;;;;;;10.52;7.70;;;21.30;72.10;;;;;;5076590;28;20176;-86
2022/06/18 07:09:05;;;;;;;12.55;6.95;;;21.30;72.70;;;;;;5076218;28;20548;-89
2022/06/18 07:11:33;;;;;;;12.55;8.32;;;21.50;72.90;;;;;;5075110;28;20190;-86
2022/06/18 07:13:59;;;;;;;11.18;7.30;;;21.50;72.00;;;;;;5075030;28;20561;-87
2022/06/18 07:16:25;;;;;;;11.70;7.22;;;21.50;71.70;;;;;;5076349;28;20171;-87
2022/06/18 07:18:53;;;;;;;11.15;7.93;;;21.50;72.70;;;;;;5075111;28;20168;-88
2022/06/18 07:21:19;;;;;;;17.58;8.23;;;21.60;71.80;;;;;;5074805;28;20184;-87
2022/06/18 07:23:45;;;;;;;18.17;7.30;;;21.70;72.40;;;;;;5076356;28;20637;-88
2022/06/18 07:26:17;;;;;;;10.65;7.63;;;21.80;71.60;;;;;;5074875;28;20167;-87
2022/06/18 07:28:43;;;;;;;13.00;7.95;;;22.10;71.30;;;;;;5074534;28;20182;-87
2022/06/18 07:31:17;;;;;;;15.30;6.75;;;22.10;70.70;;;;;;5074850;28;20540;-87
2022/06/18 07:33:45;;;;;;;13.05;7.70;;;22.20;71.60;;;;;;5075812;28;20163;-87
2022/06/18 07:36:10;;;;;;;13.80;7.68;;;22.10;70.50;;;;;;5075865;28;20174;-87
2022/06/18 07:38:36;;;;;;;12.82;7.13;;;22.20;70.60;;;;;;5074421;28;20199;-87
2022/06/18 07:41:01;;;;;;;12.20;6.93;;;22.30;70.70;;;;;;5075659;28;20672;-88
2022/06/18 07:43:40;;;;;;;10.18;7.13;;;22.30;69.60;;;;;;5075941;28;20228;-87
2022/06/18 07:46:07;;;;;;;12.40;6.88;;;22.40;71.60;;;;;;5074283;28;20555;-87
2022/06/18 07:48:33;;;;;;;12.35;6.70;;;22.70;70.60;;;;;;5075113;28;20232;-87
2022/06/18 07:50:59;;;;;;;17.60;8.07;;;22.90;70.40;;;;;;5075410;28;20187;-88
2022/06/18 07:53:26;;;;;;;18.25;8.73;;;22.80;68.50;;;;;;5074362;28;20172;-87
2022/06/18 07:55:54;;;;;;;18.85;6.97;;;22.80;68.40;;;;;;5075137;28;20552;-87
2022/06/18 07:58:20;;;;;;;14.93;8.32;;;22.90;68.80;;;;;;5075568;28;20187;-87
2022/06/18 08:00:47;;;;;;;19.15;8.35;;;22.90;69.40;;;;;;5074114;28;20198;-87
2022/06/18 08:03:15;;;;;;;13.05;8.75;;;22.90;69.30;;;;;;5074501;28;20262;-86
2022/06/18 08:05:41;;;;;;;16.00;8.38;;;23.10;68.80;;;;;;5076911;28;20254;-88
2022/06/18 08:08:07;;;;;;;17.67;8.30;;;23.30;68.40;;;;;;5077631;28;20202;-88
2022/06/18 08:10:35;;;;;;;20.52;8.43;;;23.30;68.60;;;;;;5075985;28;20571;-87
2022/06/18 08:13:01;;;;;;;13.88;8.02;;;23.20;69.00;;;;;;5074939;28;20187;-87
2022/06/18 08:15:27;;;;;;;17.27;7.00;;;23.50;68.50;;;;;;5076444;28;20172;-88
2022/06/18 08:17:52;;;;;;;15.10;7.05;;;23.80;66.80;;;;;;5076345;28;20203;-88
2022/06/18 08:20:18;;;;;;;11.80;7.38;;;23.60;66.90;;;;;;5076620;28;20673;-88
2022/06/18 08:22:50;;;;;;;16.95;6.78;;;23.50;68.60;;;;;;5075051;28;20179;-87
2022/06/18 08:25:18;;;;;;;18.23;7.15;;;23.70;68.70;;;;;;5075625;28;20250;-87
2022/06/18 08:27:46;;;;;;;13.18;6.90;;;23.80;66.80;;;;;;5075636;28;20610;-88
2022/06/18 08:30:12;;;;;;;15.18;6.97;;;23.70;66.70;;;;;;5075998;28;20206;-87
2022/06/18 08:32:38;;;;;;;15.18;6.93;;;23.70;66.50;;;;;;5075157;28;20181;-87
2022/06/18 08:35:04;;;;;;;8.82;5.32;;;23.80;65.70;;;;;;5074893;28;20179;-88
2022/06/18 08:37:30;;;;;;;12.15;5.85;;;24.00;64.50;;;;;;5074614;28;20195;-88
2022/06/18 08:39:58;;;;;;;11.95;5.38;;;24.00;64.10;;;;;;5075205;28;20191;-88
2022/06/18 08:42:29;;;;;;;14.13;5.97;;;24.20;63.50;;;;;;5074919;28;20175;-89
2022/06/18 08:45:28;;;;;;;12.93;6.03;;;24.20;62.20;;;;;;5075764;28;20218;-87
2022/06/18 08:48:05;;;;;;;17.02;6.32;;;23.70;64.00;;;;;;5076015;28;20533;-88
2022/06/18 08:50:42;;;;;;;11.88;5.93;;;23.60;64.10;;;;;;5074425;28;20567;-88
2022/06/18 08:53:16;;;;;;;8.73;5.55;;;23.40;65.40;;;;;;5076525;28;20162;-88
2022/06/18 08:55:57;;;;;;;18.05;6.47;;;23.70;66.50;;;;;;5076131;28;20193;-88
2022/06/18 08:59:02;;;;;;;17.40;6.97;;;23.90;64.70;;;;;;5075405;28;20604;-88
2022/06/18 09:01:37;;;;;;;8.55;5.93;;;23.60;65.00;;;;;;5075572;28;20161;-87
2022/06/18 09:04:21;;;;;;;14.40;6.35;;;23.90;64.50;;;;;;5074829;28;20212;-88
2022/06/18 09:07:27;;;;;;;11.43;5.38;;;24.20;65.20;;;;;;5075723;28;20168;-88
2022/06/18 09:10:01;;;;;;;14.10;6.68;;;24.30;65.10;;;;;;5073902;28;20202;-88
2022/06/18 09:12:35;;;;;;;16.63;6.68;;;24.40;64.90;;;;;;5074728;28;20262;-88
2022/06/18 09:15:20;;;;;;;15.52;6.65;;;24.40;64.70;;;;;;5075469;28;20167;-88
2022/06/18 09:18:10;;;;;;;14.07;6.20;;;24.30;65.20;;;;;;5074221;28;20191;-89
2022/06/18 09:20:58;;;;;;;20.15;6.15;;;24.50;65.60;;;;;;5073537;28;20694;-87
2022/06/18 09:23:39;;;;;;;16.20;7.07;;;24.40;65.20;;;;;;5075291;28;20239;-88
2022/06/18 09:26:12;;;;;;;16.55;6.70;;;24.00;68.00;;;;;;5075101;28;20152;-88
2022/06/18 09:28:45;;;;;;;12.93;5.93;;;24.10;68.00;;;;;;5075093;28;20571;-88
2022/06/18 09:31:21;;;;;;;13.57;5.70;;;24.50;65.50;;;;;;5073773;28;20198;-87
2022/06/18 09:33:57;;;;;;;18.55;5.63;;;24.40;65.30;;;;;;5074138;28;20265;-88
2022/06/18 09:36:43;;;;;;;14.40;5.15;;;24.50;66.20;;;;;;5074813;28;20205;-88
2022/06/18 09:39:20;;;;;;;13.27;4.88;;;24.50;65.60;;;;;;5075403;28;20198;-88
2022/06/18 09:42:02;;;;;;;12.02;4.57;;;24.60;64.10;;;;;;5073813;28;20198;-87
2022/06/18 09:44:46;;;;;;;11.38;4.20;;;24.70;63.50;;;;;;5074039;28;20173;-88
2022/06/18 09:47:37;;;;;;;14.23;4.60;;;24.70;64.00;;;;;;5075417;28;20242;-87
2022/06/18 09:50:11;;;;;;;13.45;5.22;;;24.80;64.60;;;;;;5074015;28;20295;-87
2022/06/18 09:52:39;;;;;;;10.82;4.95;;;24.70;65.00;;;;;;5075324;28;20187;-87
2022/06/18 09:55:12;;;;;;;18.25;5.78;;;24.60;67.10;;;;;;5074071;28;20202;-88
2022/06/18 09:57:41;;;;;;;18.45;6.13;;;24.90;65.80;;;;;;5075225;28;20289;-87
2022/06/18 10:00:17;;;;;;;10.25;5.22;;;25.20;63.60;;;;;;5073804;28;20187;-87
2022/06/18 10:02:49;;;;;;;10.65;4.82;;;24.30;64.70;;;;;;5073647;28;20167;-88
2022/06/18 10:08:24;;;;;;;10.35;3.50;;;25.10;63.20;;;;;;5074197;28;20527;-87
2022/06/18 10:11:07;;;;;;;8.85;3.42;;;25.20;62.00;;;;;;5072096;28;20231;-87
2022/06/18 10:13:38;;;;;;;12.13;3.72;;;24.80;61.50;;;;;;5073784;28;20190;-89
2022/06/18 10:16:16;;;;;;;7.18;3.15;;;24.40;65.70;;;;;;5078553;28;20178;-88
2022/06/18 10:18:55;;;;;;;9.05;2.80;;;24.80;62.70;;;;;;5079949;28;20249;-87
2022/06/18 10:21:45;;;;;;;10.48;3.00;;;25.20;63.30;;;;;;5076772;28;20197;-87
2022/06/18 10:24:24;;;;;;;8.80;2.95;;;24.90;63.60;;;;;;5077618;28;20167;-87
2022/06/18 10:27:10;;;;;;;13.75;3.13;;;24.80;64.20;;;;;;5076840;28;20258;-86
2022/06/18 10:29:50;;;;;;;5.43;2.72;;;24.80;64.00;;;;;;5076174;28;20211;-86
2022/06/18 10:32:48;;;;;;;9.15;2.70;;;24.50;65.70;;;;;;5076049;28;20171;-87
2022/06/18 10:35:23;;;;;;;3.72;2.20;;;24.30;63.70;;;;;;5075964;28;20629;-87
2022/06/18 10:37:59;;;;;;;6.47;2.10;;;24.20;66.50;;;;;;5076433;28;20195;-87
2022/06/18 10:40:50;;;;;;;5.80;2.47;;;24.00;65.90;;;;;;5076408;28;20195;-87
2022/06/18 10:43:46;;;;;;;4.55;2.20;;;24.40;66.30;;;;;;5077859;28;20148;-88
2022/06/18 10:46:16;;;;;;;4.20;1.58;;;24.20;65.10;;;;;;5067449;28;20293;-88
2022/06/18 10:48:48;;;;;;;4.95;1.60;;;24.90;62.00;;;;;;5076006;28;20189;-87
2022/06/18 10:51:20;;;;;;;8.40;1.83;;;24.50;63.80;;;;;;5077601;28;20632;-87
2022/06/18 10:53:53;;;;;;;2.45;1.40;;;24.50;64.00;;;;;;5075937;28;20608;-87
2022/06/18 10:56:22;;;;;;;3.85;1.30;;;24.80;63.60;;;;;;5075714;28;20203;-87
2022/06/18 10:58:53;;;;;;;3.65;1.17;;;25.00;62.10;;;;;;5075956;28;20673;-87
2022/06/18 11:01:34;;;;;;;2.67;1.00;;;25.00;62.30;;;;;;5076165;28;20661;-86
2022/06/18 11:04:22;;;;;;;3.20;1.70;;;24.70;62.60;;;;;;5077227;28;20169;-87
2022/06/18 11:06:53;;;;;;;2.97;1.00;;;24.80;62.50;;;;;;5077130;28;20642;-86
2022/06/18 11:09:25;;;;;;;4.75;1.00;;;25.10;62.40;;;;;;5077837;28;20202;-88
2022/06/18 11:11:56;;;;;;;0.82;0.80;;;25.20;61.40;;;;;;5077920;28;20179;-88
2022/06/18 11:14:23;;;;;;;1.63;0.73;;;25.70;61.70;;;;;;5077328;28;20270;-88
2022/06/18 11:16:54;;;;;;;3.08;0.85;;;25.70;60.10;;;;;;5077015;28;20203;-88
2022/06/18 11:19:33;;;;;;;2.47;0.82;;;25.70;60.40;;;;;;5077388;28;20164;-88
2022/06/18 11:22:28;;;;;;;3.92;1.13;;;25.20;61.90;;;;;;5078292;28;20523;-88
2022/06/18 11:25:00;;;;;;;2.13;0.77;;;25.80;60.40;;;;;;5071857;28;20218;-88
2022/06/18 11:27:33;;;;;;;1.25;0.60;;;26.20;57.30;;;;;;5076782;28;20626;-88
2022/06/18 11:30:04;;;;;;;2.55;0.80;;;26.00;56.90;;;;;;5077659;28;20202;-89
2022/06/18 11:32:34;;;;;;;2.65;0.82;;;25.70;60.10;;;;;;5076250;28;20175;-88
2022/06/18 11:35:09;;;;;;;1.73;0.60;;;25.90;58.40;;;;;;5076124;28;20182;-88
2022/06/18 11:37:34;;;;;;;2.83;0.80;;;25.90;57.80;;;;;;5077456;28;20270;-89
2022/06/18 11:40:03;;;;;;;2.65;0.75;;;26.20;58.70;;;;;;5075818;28;20234;-88
2022/06/18 11:43:16;;;;;;;1.50;0.80;;;26.30;56.60;;;;;;5075811;28;20179;-88
2022/06/18 11:45:57;;;;;;;1.42;0.70;;;25.90;56.80;;;;;;5076037;28;20167;-88
2022/06/18 11:48:40;;;;;;;4.57;1.05;;;26.00;58.00;;;;;;5076391;28;20156;-88
2022/06/18 11:51:31;;;;;;;2.35;1.02;;;26.30;56.80;;;;;;5076213;28;20183;-89
2022/06/18 11:54:20;;;;;;;4.18;0.90;;;26.00;57.80;;;;;;5076223;28;20180;-88
2022/06/18 11:57:15;;;;;;;2.55;1.02;;;25.80;58.40;;;;;;5072716;28;20282;-88
2022/06/18 11:59:52;;;;;;;3.83;1.25;;;25.60;59.30;;;;;;5075589;28;20195;-88
2022/06/18 12:02:27;;;;;;;6.18;1.35;;;25.80;58.70;;;;;;5076416;28;20175;-88
2022/06/18 12:05:02;;;;;;;2.72;1.25;;;25.70;59.70;;;;;;5075471;28;20540;-88
2022/06/18 12:07:36;;;;;;;5.65;1.35;;;25.80;59.90;;;;;;5075754;28;20170;-88
2022/06/18 12:10:05;;;;;;;2.63;1.00;;;25.40;61.20;;;;;;5075225;28;20285;-88
2022/06/18 12:12:42;;;;;;;2.25;1.15;;;25.80;58.40;;;;;;5075168;28;20637;-88
2022/06/18 12:15:37;;;;;;;5.13;1.33;;;25.60;58.10;;;;;;5075292;28;20182;-89
2022/06/18 12:18:14;;;;;;;3.00;0.98;;;24.80;61.20;;;;;;5075005;28;20240;-89
2022/06/18 12:20:52;;;;;;;4.53;1.30;;;25.70;61.00;;;;;;5075254;28;20194;-87
2022/06/18 12:23:23;;;;;;;3.20;1.13;;;26.00;59.20;;;;;;5075133;28;20171;-88
2022/06/18 12:25:58;;;;;;;4.13;1.40;;;25.80;59.60;;;;;;5075477;28;20618;-88
2022/06/18 12:28:55;;;;;;;2.45;1.20;;;26.10;58.90;;;;;;5075727;28;20166;-88
2022/06/18 12:31:46;;;;;;;2.28;1.33;;;25.70;60.30;;;;;;5075220;28;20217;-88
2022/06/18 12:34:37;;;;;;;3.08;1.20;;;25.70;61.00;;;;;;5075146;28;20267;-87
2022/06/18 12:37:21;;;;;;;2.22;1.13;;;25.40;60.40;;;;;;5073495;28;20195;-89
2022/06/18 12:40:05;;;;;;;3.75;1.48;;;26.10;56.90;;;;;;5075744;28;20214;-87
2022/06/18 12:43:05;;;;;;;3.25;1.10;;;26.00;56.40;;;;;;5076558;28;20155;-88
2022/06/18 12:45:42;;;;;;;5.35;1.15;;;26.20;56.30;;;;;;5072488;28;20190;-88
2022/06/18 12:48:57;;;;;;;2.65;0.85;;;26.30;54.80;;;;;;5074483;28;20647;-87
2022/06/18 12:51:38;;;;;;;5.47;1.52;;;26.20;53.70;;;;;;5063545;28;20590;-87
2022/06/18 12:54:14;;;;;;;5.75;1.10;;;25.80;55.00;;;;;;5073920;28;20183;-87
2022/06/18 12:57:04;;;;;;;4.25;1.20;;;25.60;56.10;;;;;;5073647;28;20715;-87
2022/06/18 12:59:48;;;;;;;3.17;1.10;;;25.90;55.50;;;;;;5073574;28;20195;-87
2022/06/18 13:03:00;;;;;;;2.70;1.00;;;25.90;54.20;;;;;;5073571;28;20178;-87
2022/06/18 13:05:49;;;;;;;4.57;1.17;;;25.70;54.70;;;;;;5075060;28;20152;-87
2022/06/18 13:08:27;;;;;;;2.70;1.10;;;25.90;55.70;;;;;;5073311;28;20660;-87
2022/06/18 13:11:19;;;;;;;3.00;1.20;;;25.90;55.50;;;;;;5074235;28;20286;-86
2022/06/18 13:14:17;;;;;;;2.03;1.00;;;25.80;55.80;;;;;;5072992;28;20221;-86
2022/06/18 13:16:48;;;;;;;5.75;1.17;;;25.80;57.90;;;;;;5074378;28;20160;-87
2022/06/18 13:19:24;;;;;;;5.15;1.10;;;26.10;56.20;;;;;;5072891;28;20168;-86
2022/06/18 13:21:51;;;;;;;3.08;1.00;;;25.60;59.70;;;;;;5074230;28;20201;-87